KDBN/DBN METAR and TAF weather

Enter ICAO airport designator
Station Type Date Time Source
KDBN METAR 2019/02/23 03:15 UTC NOAA

KDBN 230315Z AUTO 04007KT 10SM OVC013 13/12 A3025 RMK AO2


Station Type Date Time Source
KDBN Decoded METAR 2019/02/23 03:15 UTC NOAA

Dublin, W H 'Bud' Barron Airport, GA, United States (KDBN) 32-33-52N 082-59-06W
Feb 22, 2019 - 10:15 PM EST / 2019.02.23 0315 UTC
Wind: from the NE (040 degrees) at 8 MPH (7 KT):0
Visibility: 10 mile(s):0
Sky conditions: overcast
Temperature: 55 F (13 C)
Dew Point: 53 F (12 C)
Relative Humidity: 93%
Pressure (altimeter): 30.25 in. Hg (1024 hPa)
ob: KDBN 230315Z AUTO 04007KT 10SM OVC013 13/12 A3025 RMK AO2
cycle: 3

Station Type Date Time Source
KDBN TAF UTC NOAA

Error!


Example: see airport list